sensor_id;sensor_type;location;lat;lon;timestamp;pressure;altitude;pressure_sealevel;temperature
24639;BMP180;1641;51.306;12.384;2023-03-23T00:02:22;99287.00;;;15.50
24639;BMP180;1641;51.306;12.384;2023-03-23T00:04:48;99278.00;;;15.50
24639;BMP180;1641;51.306;12.384;2023-03-23T00:07:14;99273.00;;;15.70
24639;BMP180;1641;51.306;12.384;2023-03-23T00:10:01;99280.00;;;15.60
24639;BMP180;1641;51.306;12.384;2023-03-23T00:12:33;99271.00;;;15.40
24639;BMP180;1641;51.306;12.384;2023-03-23T00:15:07;99272.00;;;15.20
24639;BMP180;1641;51.306;12.384;2023-03-23T00:17:38;99263.00;;;15.20
24639;BMP180;1641;51.306;12.384;2023-03-23T00:20:06;99263.00;;;15.30
24639;BMP180;1641;51.306;12.384;2023-03-23T00:22:31;99264.00;;;15.50
24639;BMP180;1641;51.306;12.384;2023-03-23T00:25:08;99249.00;;;15.40
24639;BMP180;1641;51.306;12.384;2023-03-23T00:27:36;99261.00;;;15.60
24639;BMP180;1641;51.306;12.384;2023-03-23T00:30:02;99258.00;;;15.40
24639;BMP180;1641;51.306;12.384;2023-03-23T00:32:27;99259.00;;;15.50
24639;BMP180;1641;51.306;12.384;2023-03-23T00:34:54;99253.00;;;15.60
24639;BMP180;1641;51.306;12.384;2023-03-23T00:37:19;99256.00;;;15.60
24639;BMP180;1641;51.306;12.384;2023-03-23T00:39:51;99246.00;;;15.70
24639;BMP180;1641;51.306;12.384;2023-03-23T00:42:16;99243.00;;;15.60
24639;BMP180;1641;51.306;12.384;2023-03-23T00:44:42;99246.00;;;15.30
24639;BMP180;1641;51.306;12.384;2023-03-23T00:47:11;99247.00;;;15.70
24639;BMP180;1641;51.306;12.384;2023-03-23T00:49:37;99245.00;;;15.80
24639;BMP180;1641;51.306;12.384;2023-03-23T00:52:03;99242.00;;;16.00
24639;BMP180;1641;51.306;12.384;2023-03-23T00:54:29;99236.00;;;15.70
24639;BMP180;1641;51.306;12.384;2023-03-23T00:57:00;99231.00;;;15.80
24639;BMP180;1641;51.306;12.384;2023-03-23T00:59:25;99238.00;;;15.80
24639;BMP180;1641;51.306;12.384;2023-03-23T01:01:51;99237.00;;;15.80
24639;BMP180;1641;51.306;12.384;2023-03-23T01:04:16;99231.00;;;15.80
24639;BMP180;1641;51.306;12.384;2023-03-23T01:06:44;99231.00;;;15.80
24639;BMP180;1641;51.306;12.384;2023-03-23T01:09:13;99252.00;;;15.90
24639;BMP180;1641;51.306;12.384;2023-03-23T01:11:42;99237.00;;;15.80
24639;BMP180;1641;51.306;12.384;2023-03-23T01:14:11;99225.00;;;15.60
24639;BMP180;1641;51.306;12.384;2023-03-23T01:16:37;99228.00;;;15.50
24639;BMP180;1641;51.306;12.384;2023-03-23T01:19:05;99227.00;;;15.40
24639;BMP180;1641;51.306;12.384;2023-03-23T01:21:31;99226.00;;;15.40
24639;BMP180;1641;51.306;12.384;2023-03-23T01:24:05;99219.00;;;15.50
24639;BMP180;1641;51.306;12.384;2023-03-23T01:26:31;99225.00;;;15.50
24639;BMP180;1641;51.306;12.384;2023-03-23T01:28:56;99221.00;;;15.40
24639;BMP180;1641;51.306;12.384;2023-03-23T01:31:22;99213.00;;;15.50
24639;BMP180;1641;51.306;12.384;2023-03-23T01:33:48;99213.00;;;15.60
24639;BMP180;1641;51.306;12.384;2023-03-23T01:36:16;99205.00;;;15.80
24639;BMP180;1641;51.306;12.384;2023-03-23T01:38:42;99200.00;;;15.80
24639;BMP180;1641;51.306;12.384;2023-03-23T01:41:08;99194.00;;;15.70
24639;BMP180;1641;51.306;12.384;2023-03-23T01:43:33;99189.00;;;15.40
24639;BMP180;1641;51.306;12.384;2023-03-23T01:45:58;99188.00;;;15.50
24639;BMP180;1641;51.306;12.384;2023-03-23T01:48:25;99188.00;;;15.50
24639;BMP180;1641;51.306;12.384;2023-03-23T01:50:55;99203.00;;;15.60
24639;BMP180;1641;51.306;12.384;2023-03-23T01:53:22;99186.00;;;15.70
24639;BMP180;1641;51.306;12.384;2023-03-23T01:55:47;99190.00;;;15.70
24639;BMP180;1641;51.306;12.384;2023-03-23T01:58:16;99186.00;;;15.80
24639;BMP180;1641;51.306;12.384;2023-03-23T02:00:42;99191.00;;;15.50
24639;BMP180;1641;51.306;12.384;2023-03-23T02:03:07;99187.00;;;15.60
24639;BMP180;1641;51.306;12.384;2023-03-23T02:05:36;99187.00;;;15.80
24639;BMP180;1641;51.306;12.384;2023-03-23T02:08:02;99184.00;;;15.70
24639;BMP180;1641;51.306;12.384;2023-03-23T02:10:29;99191.00;;;15.80
24639;BMP180;1641;51.306;12.384;2023-03-23T02:12:54;99179.00;;;16.00
24639;BMP180;1641;51.306;12.384;2023-03-23T02:15:20;99180.00;;;16.00
24639;BMP180;1641;51.306;12.384;2023-03-23T02:17:59;99179.00;;;15.90
24639;BMP180;1641;51.306;12.384;2023-03-23T02:25:33;99173.00;;;15.60
24639;BMP180;1641;51.306;12.384;2023-03-23T02:39:27;99145.00;;;15.30
24639;BMP180;1641;51.306;12.384;2023-03-23T02:41:22;99143.00;;;15.30
24639;BMP180;1641;51.306;12.384;2023-03-23T02:43:47;99144.00;;;15.60
24639;BMP180;1641;51.306;12.384;2023-03-23T02:46:13;99147.00;;;15.60
24639;BMP180;1641;51.306;12.384;2023-03-23T02:48:39;99144.00;;;15.80
24639;BMP180;1641;51.306;12.384;2023-03-23T02:51:06;99142.00;;;15.50
24639;BMP180;1641;51.306;12.384;2023-03-23T02:53:33;99134.00;;;15.40
24639;BMP180;1641;51.306;12.384;2023-03-23T02:55:59;99139.00;;;15.40
24639;BMP180;1641;51.306;12.384;2023-03-23T02:58:28;99138.00;;;15.40
24639;BMP180;1641;51.306;12.384;2023-03-23T03:00:53;99137.00;;;15.30
24639;BMP180;1641;51.306;12.384;2023-03-23T03:03:23;99135.00;;;15.30
24639;BMP180;1641;51.306;12.384;2023-03-23T03:11:19;99140.00;;;15.30
24639;BMP180;1641;51.306;12.384;2023-03-23T03:13:55;99126.00;;;15.20
24639;BMP180;1641;51.306;12.384;2023-03-23T03:16:28;99133.00;;;15.40
24639;BMP180;1641;51.306;12.384;2023-03-23T03:21:30;99129.00;;;15.10
24639;BMP180;1641;51.306;12.384;2023-03-23T03:24:00;99119.00;;;15.40
24639;BMP180;1641;51.306;12.384;2023-03-23T03:26:26;99130.00;;;15.20
24639;BMP180;1641;51.306;12.384;2023-03-23T03:28:53;99135.00;;;15.50
24639;BMP180;1641;51.306;12.384;2023-03-23T03:31:23;99133.00;;;15.40
24639;BMP180;1641;51.306;12.384;2023-03-23T03:33:48;99133.00;;;15.40
24639;BMP180;1641;51.306;12.384;2023-03-23T03:36:14;99133.00;;;15.40
24639;BMP180;1641;51.306;12.384;2023-03-23T03:38:41;99129.00;;;15.40
24639;BMP180;1641;51.306;12.384;2023-03-23T03:41:07;99144.00;;;15.40
24639;BMP180;1641;51.306;12.384;2023-03-23T03:43:32;99142.00;;;15.40
24639;BMP180;1641;51.306;12.384;2023-03-23T03:45:57;99133.00;;;15.60
24639;BMP180;1641;51.306;12.384;2023-03-23T03:48:23;99133.00;;;15.80
24639;BMP180;1641;51.306;12.384;2023-03-23T03:50:51;99137.00;;;15.80
24639;BMP180;1641;51.306;12.384;2023-03-23T03:53:17;99144.00;;;15.80
24639;BMP180;1641;51.306;12.384;2023-03-23T03:55:42;99141.00;;;15.80
24639;BMP180;1641;51.306;12.384;2023-03-23T03:58:13;99138.00;;;15.70
24639;BMP180;1641;51.306;12.384;2023-03-23T04:00:38;99129.00;;;15.80
24639;BMP180;1641;51.306;12.384;2023-03-23T04:03:04;99126.00;;;15.60
24639;BMP180;1641;51.306;12.384;2023-03-23T04:05:35;99125.00;;;15.40
24639;BMP180;1641;51.306;12.384;2023-03-23T04:08:10;99129.00;;;15.00
24639;BMP180;1641;51.306;12.384;2023-03-23T04:10:36;99136.00;;;15.50
24639;BMP180;1641;51.306;12.384;2023-03-23T04:13:01;99128.00;;;15.90
24639;BMP180;1641;51.306;12.384;2023-03-23T04:15:29;99134.00;;;15.80
24639;BMP180;1641;51.306;12.384;2023-03-23T04:17:55;99151.00;;;15.70
24639;BMP180;1641;51.306;12.384;2023-03-23T04:20:24;99156.00;;;15.80
24639;BMP180;1641;51.306;12.384;2023-03-23T04:22:51;99156.00;;;16.00
24639;BMP180;1641;51.306;12.384;2023-03-23T04:25:18;99138.00;;;16.20
24639;BMP180;1641;51.306;12.384;2023-03-23T04:27:46;99127.00;;;15.80
24639;BMP180;1641;51.306;12.384;2023-03-23T04:30:26;99138.00;;;15.50
24639;BMP180;1641;51.306;12.384;2023-03-23T04:32:53;99137.00;;;15.70
24639;BMP180;1641;51.306;12.384;2023-03-23T04:35:36;99144.00;;;15.80
24639;BMP180;1641;51.306;12.384;2023-03-23T04:38:05;99139.00;;;15.80
24639;BMP180;1641;51.306;12.384;2023-03-23T04:40:30;99132.00;;;15.80
24639;BMP180;1641;51.306;12.384;2023-03-23T04:43:07;99137.00;;;15.70
24639;BMP180;1641;51.306;12.384;2023-03-23T04:45:35;99145.00;;;16.00
24639;BMP180;1641;51.306;12.384;2023-03-23T04:48:03;99146.00;;;16.10
24639;BMP180;1641;51.306;12.384;2023-03-23T04:50:30;99144.00;;;16.00
24639;BMP180;1641;51.306;12.384;2023-03-23T04:52:57;99147.00;;;16.10
24639;BMP180;1641;51.306;12.384;2023-03-23T04:55:23;99140.00;;;16.10
24639;BMP180;1641;51.306;12.384;2023-03-23T04:58:02;99137.00;;;16.10
24639;BMP180;1641;51.306;12.384;2023-03-23T05:00:27;99148.00;;;15.90
24639;BMP180;1641;51.306;12.384;2023-03-23T05:02:53;99156.00;;;15.80
24639;BMP180;1641;51.306;12.384;2023-03-23T05:05:23;99151.00;;;15.70
24639;BMP180;1641;51.306;12.384;2023-03-23T05:07:52;99161.00;;;15.80
24639;BMP180;1641;51.306;12.384;2023-03-23T05:10:18;99157.00;;;15.80
24639;BMP180;1641;51.306;12.384;2023-03-23T05:12:46;99163.00;;;15.90
24639;BMP180;1641;51.306;12.384;2023-03-23T05:15:12;99161.00;;;16.00
24639;BMP180;1641;51.306;12.384;2023-03-23T05:17:41;99161.00;;;16.10
24639;BMP180;1641;51.306;12.384;2023-03-23T05:20:09;99155.00;;;16.00
24639;BMP180;1641;51.306;12.384;2023-03-23T05:22:36;99157.00;;;16.00
24639;BMP180;1641;51.306;12.384;2023-03-23T05:25:16;99153.00;;;15.90
24639;BMP180;1641;51.306;12.384;2023-03-23T05:27:44;99144.00;;;15.90
24639;BMP180;1641;51.306;12.384;2023-03-23T05:30:14;99147.00;;;16.10
24639;BMP180;1641;51.306;12.384;2023-03-23T05:32:41;99155.00;;;16.10
24639;BMP180;1641;51.306;12.384;2023-03-23T05:35:07;99165.00;;;16.20
24639;BMP180;1641;51.306;12.384;2023-03-23T05:37:32;99156.00;;;16.20
24639;BMP180;1641;51.306;12.384;2023-03-23T05:39:58;99152.00;;;16.20
24639;BMP180;1641;51.306;12.384;2023-03-23T05:42:31;99159.00;;;16.10
24639;BMP180;1641;51.306;12.384;2023-03-23T05:44:57;99164.00;;;16.00
24639;BMP180;1641;51.306;12.384;2023-03-23T05:47:32;99166.00;;;16.10
24639;BMP180;1641;51.306;12.384;2023-03-23T05:49:58;99173.00;;;16.30
24639;BMP180;1641;51.306;12.384;2023-03-23T05:52:27;99166.00;;;16.30
24639;BMP180;1641;51.306;12.384;2023-03-23T06:00:20;99171.00;;;16.30
24639;BMP180;1641;51.306;12.384;2023-03-23T06:02:53;99175.00;;;16.30
24639;BMP180;1641;51.306;12.384;2023-03-23T06:05:25;99180.00;;;16.30
24639;BMP180;1641;51.306;12.384;2023-03-23T06:07:51;99187.00;;;16.20
24639;BMP180;1641;51.306;12.384;2023-03-23T06:10:17;99195.00;;;16.10
24639;BMP180;1641;51.306;12.384;2023-03-23T06:12:42;99192.00;;;16.10
24639;BMP180;1641;51.306;12.384;2023-03-23T06:15:09;99194.00;;;16.00
24639;BMP180;1641;51.306;12.384;2023-03-23T06:17:34;99200.00;;;15.90
24639;BMP180;1641;51.306;12.384;2023-03-23T06:20:01;99199.00;;;15.70
24639;BMP180;1641;51.306;12.384;2023-03-23T06:22:32;99203.00;;;15.80
24639;BMP180;1641;51.306;12.384;2023-03-23T06:24:58;99218.00;;;16.00
24639;BMP180;1641;51.306;12.384;2023-03-23T06:27:23;99216.00;;;15.90
24639;BMP180;1641;51.306;12.384;2023-03-23T06:29:58;99204.00;;;15.90
24639;BMP180;1641;51.306;12.384;2023-03-23T06:32:29;99199.00;;;16.10
24639;BMP180;1641;51.306;12.384;2023-03-23T06:34:55;99210.00;;;16.20
24639;BMP180;1641;51.306;12.384;2023-03-23T06:37:27;99218.00;;;16.10
24639;BMP180;1641;51.306;12.384;2023-03-23T06:39:53;99211.00;;;16.20
24639;BMP180;1641;51.306;12.384;2023-03-23T06:42:18;99210.00;;;16.00
24639;BMP180;1641;51.306;12.384;2023-03-23T06:44:50;99208.00;;;16.00
24639;BMP180;1641;51.306;12.384;2023-03-23T06:47:18;99219.00;;;15.60
24639;BMP180;1641;51.306;12.384;2023-03-23T06:49:43;99213.00;;;15.40
24639;BMP180;1641;51.306;12.384;2023-03-23T06:52:11;99213.00;;;15.40
24639;BMP180;1641;51.306;12.384;2023-03-23T06:54:37;99232.00;;;15.50
24639;BMP180;1641;51.306;12.384;2023-03-23T06:57:02;99222.00;;;15.30
24639;BMP180;1641;51.306;12.384;2023-03-23T06:59:27;99234.00;;;15.30
24639;BMP180;1641;51.306;12.384;2023-03-23T07:01:53;99230.00;;;15.40
24639;BMP180;1641;51.306;12.384;2023-03-23T07:04:20;99239.00;;;15.40
24639;BMP180;1641;51.306;12.384;2023-03-23T07:07:00;99250.00;;;15.70
24639;BMP180;1641;51.306;12.384;2023-03-23T07:09:26;99249.00;;;15.50
24639;BMP180;1641;51.306;12.384;2023-03-23T07:12:10;99245.00;;;15.90
24639;BMP180;1641;51.306;12.384;2023-03-23T07:14:35;99260.00;;;15.70
24639;BMP180;1641;51.306;12.384;2023-03-23T07:17:04;99266.00;;;15.70
24639;BMP180;1641;51.306;12.384;2023-03-23T07:19:29;99263.00;;;15.70
24639;BMP180;1641;51.306;12.384;2023-03-23T07:21:54;99269.00;;;15.50
24639;BMP180;1641;51.306;12.384;2023-03-23T07:24:21;99268.00;;;15.50
24639;BMP180;1641;51.306;12.384;2023-03-23T07:26:47;99258.00;;;15.70
24639;BMP180;1641;51.306;12.384;2023-03-23T07:29:12;99226.00;;;15.70
24639;BMP180;1641;51.306;12.384;2023-03-23T07:31:37;99255.00;;;15.40
24639;BMP180;1641;51.306;12.384;2023-03-23T07:34:02;99255.00;;;15.90
24639;BMP180;1641;51.306;12.384;2023-03-23T07:36:28;99264.00;;;15.70
24639;BMP180;1641;51.306;12.384;2023-03-23T07:38:53;99257.00;;;15.60
24639;BMP180;1641;51.306;12.384;2023-03-23T07:41:19;99258.00;;;15.60
24639;BMP180;1641;51.306;12.384;2023-03-23T07:43:45;99252.00;;;15.50
24639;BMP180;1641;51.306;12.384;2023-03-23T07:46:11;99262.00;;;15.40
24639;BMP180;1641;51.306;12.384;2023-03-23T07:48:36;99254.00;;;15.40
24639;BMP180;1641;51.306;12.384;2023-03-23T07:51:02;99258.00;;;15.60
24639;BMP180;1641;51.306;12.384;2023-03-23T07:53:28;99256.00;;;15.30
24639;BMP180;1641;51.306;12.384;2023-03-23T07:55:53;99244.00;;;15.50
24639;BMP180;1641;51.306;12.384;2023-03-23T07:58:18;99250.00;;;15.70
24639;BMP180;1641;51.306;12.384;2023-03-23T08:00:45;99251.00;;;16.00
24639;BMP180;1641;51.306;12.384;2023-03-23T08:03:11;99257.00;;;16.20
24639;BMP180;1641;51.306;12.384;2023-03-23T08:05:37;99257.00;;;16.00
24639;BMP180;1641;51.306;12.384;2023-03-23T08:08:02;99255.00;;;16.30
24639;BMP180;1641;51.306;12.384;2023-03-23T08:10:27;99261.00;;;16.70
24639;BMP180;1641;51.306;12.384;2023-03-23T08:12:53;99259.00;;;16.60
24639;BMP180;1641;51.306;12.384;2023-03-23T08:15:19;99252.00;;;16.80
24639;BMP180;1641;51.306;12.384;2023-03-23T08:17:46;99252.00;;;16.90
24639;BMP180;1641;51.306;12.384;2023-03-23T08:20:12;99254.00;;;16.60
24639;BMP180;1641;51.306;12.384;2023-03-23T08:22:41;99255.00;;;16.80
24639;BMP180;1641;51.306;12.384;2023-03-23T08:25:08;99256.00;;;16.60
24639;BMP180;1641;51.306;12.384;2023-03-23T08:27:34;99253.00;;;16.40
24639;BMP180;1641;51.306;12.384;2023-03-23T08:30:00;99247.00;;;16.40
24639;BMP180;1641;51.306;12.384;2023-03-23T08:32:25;99250.00;;;16.70
24639;BMP180;1641;51.306;12.384;2023-03-23T08:34:51;99257.00;;;16.50
24639;BMP180;1641;51.306;12.384;2023-03-23T08:37:16;99251.00;;;16.60
24639;BMP180;1641;51.306;12.384;2023-03-23T08:39:42;99248.00;;;16.50
24639;BMP180;1641;51.306;12.384;2023-03-23T08:42:08;99255.00;;;16.30
24639;BMP180;1641;51.306;12.384;2023-03-23T08:44:33;99252.00;;;16.40
24639;BMP180;1641;51.306;12.384;2023-03-23T08:46:59;99247.00;;;16.60
24639;BMP180;1641;51.306;12.384;2023-03-23T08:49:24;99257.00;;;16.30
24639;BMP180;1641;51.306;12.384;2023-03-23T08:51:50;99259.00;;;16.60
24639;BMP180;1641;51.306;12.384;2023-03-23T08:54:16;99250.00;;;16.90
24639;BMP180;1641;51.306;12.384;2023-03-23T08:56:42;99246.00;;;17.00
24639;BMP180;1641;51.306;12.384;2023-03-23T08:59:07;99240.00;;;17.60
24639;BMP180;1641;51.306;12.384;2023-03-23T09:01:32;99244.00;;;17.70
24639;BMP180;1641;51.306;12.384;2023-03-23T09:03:59;99232.00;;;18.10
24639;BMP180;1641;51.306;12.384;2023-03-23T09:06:24;99241.00;;;17.90
24639;BMP180;1641;51.306;12.384;2023-03-23T09:08:50;99230.00;;;17.70
24639;BMP180;1641;51.306;12.384;2023-03-23T09:11:16;99229.00;;;17.90
24639;BMP180;1641;51.306;12.384;2023-03-23T09:13:41;99237.00;;;17.60
24639;BMP180;1641;51.306;12.384;2023-03-23T09:16:06;99240.00;;;18.10
24639;BMP180;1641;51.306;12.384;2023-03-23T09:18:32;99241.00;;;18.20
24639;BMP180;1641;51.306;12.384;2023-03-23T09:20:58;99235.00;;;18.30
24639;BMP180;1641;51.306;12.384;2023-03-23T09:23:24;99249.00;;;18.40
24639;BMP180;1641;51.306;12.384;2023-03-23T09:25:49;99242.00;;;18.60
24639;BMP180;1641;51.306;12.384;2023-03-23T09:28:16;99257.00;;;18.50
24639;BMP180;1641;51.306;12.384;2023-03-23T09:30:41;99256.00;;;18.30
24639;BMP180;1641;51.306;12.384;2023-03-23T09:33:07;99261.00;;;18.40
24639;BMP180;1641;51.306;12.384;2023-03-23T09:35:33;99256.00;;;18.10
24639;BMP180;1641;51.306;12.384;2023-03-23T09:37:59;99263.00;;;17.90
24639;BMP180;1641;51.306;12.384;2023-03-23T09:40:40;99253.00;;;18.10
24639;BMP180;1641;51.306;12.384;2023-03-23T09:43:16;99256.00;;;18.20
24639;BMP180;1641;51.306;12.384;2023-03-23T09:51:02;99247.00;;;17.90
24639;BMP180;1641;51.306;12.384;2023-03-23T09:53:30;99252.00;;;17.80
24639;BMP180;1641;51.306;12.384;2023-03-23T09:56:00;99248.00;;;17.90
24639;BMP180;1641;51.306;12.384;2023-03-23T09:58:37;99253.00;;;18.00
24639;BMP180;1641;51.306;12.384;2023-03-23T10:01:14;99256.00;;;17.70
24639;BMP180;1641;51.306;12.384;2023-03-23T10:03:41;99256.00;;;18.00
24639;BMP180;1641;51.306;12.384;2023-03-23T10:06:11;99258.00;;;18.00
24639;BMP180;1641;51.306;12.384;2023-03-23T10:08:37;99262.00;;;17.80
24639;BMP180;1641;51.306;12.384;2023-03-23T10:11:09;99261.00;;;17.70
24639;BMP180;1641;51.306;12.384;2023-03-23T10:16:03;99261.00;;;17.80
24639;BMP180;1641;51.306;12.384;2023-03-23T10:18:35;99252.00;;;17.90
24639;BMP180;1641;51.306;12.384;2023-03-23T10:21:01;99261.00;;;18.20
24639;BMP180;1641;51.306;12.384;2023-03-23T10:23:40;99260.00;;;18.30
24639;BMP180;1641;51.306;12.384;2023-03-23T10:26:44;99252.00;;;17.90
24639;BMP180;1641;51.306;12.384;2023-03-23T10:31:32;99254.00;;;18.30
24639;BMP180;1641;51.306;12.384;2023-03-23T10:33:58;99259.00;;;18.20
24639;BMP180;1641;51.306;12.384;2023-03-23T10:41:18;99267.00;;;18.60
24639;BMP180;1641;51.306;12.384;2023-03-23T10:43:44;99273.00;;;18.30
24639;BMP180;1641;51.306;12.384;2023-03-23T10:46:27;99270.00;;;18.30
24639;BMP180;1641;51.306;12.384;2023-03-23T10:48:53;99272.00;;;18.20
24639;BMP180;1641;51.306;12.384;2023-03-23T10:51:22;99277.00;;;18.40
24639;BMP180;1641;51.306;12.384;2023-03-23T10:53:51;99271.00;;;18.00
24639;BMP180;1641;51.306;12.384;2023-03-23T10:58:49;99269.00;;;18.30
24639;BMP180;1641;51.306;12.384;2023-03-23T11:01:14;99266.00;;;18.20
24639;BMP180;1641;51.306;12.384;2023-03-23T11:03:44;99267.00;;;17.80
24639;BMP180;1641;51.306;12.384;2023-03-23T11:06:24;99263.00;;;18.00
24639;BMP180;1641;51.306;12.384;2023-03-23T11:09:01;99275.00;;;18.00
24639;BMP180;1641;51.306;12.384;2023-03-23T11:11:29;99283.00;;;18.00
24639;BMP180;1641;51.306;12.384;2023-03-23T11:13:59;99282.00;;;18.20
24639;BMP180;1641;51.306;12.384;2023-03-23T11:16:26;99283.00;;;18.20
24639;BMP180;1641;51.306;12.384;2023-03-23T11:18:52;99275.00;;;18.20
24639;BMP180;1641;51.306;12.384;2023-03-23T11:21:19;99288.00;;;18.50
24639;BMP180;1641;51.306;12.384;2023-03-23T11:23:48;99282.00;;;18.50
24639;BMP180;1641;51.306;12.384;2023-03-23T11:26:20;99294.00;;;17.60
24639;BMP180;1641;51.306;12.384;2023-03-23T11:31:11;99290.00;;;17.60
24639;BMP180;1641;51.306;12.384;2023-03-23T11:33:58;99282.00;;;17.50
24639;BMP180;1641;51.306;12.384;2023-03-23T11:36:28;99283.00;;;17.90
24639;BMP180;1641;51.306;12.384;2023-03-23T11:38:54;99290.00;;;17.80
24639;BMP180;1641;51.306;12.384;2023-03-23T11:41:21;99284.00;;;17.60
24639;BMP180;1641;51.306;12.384;2023-03-23T11:43:47;99296.00;;;17.70
24639;BMP180;1641;51.306;12.384;2023-03-23T11:48:41;99292.00;;;17.70
24639;BMP180;1641;51.306;12.384;2023-03-23T11:51:15;99295.00;;;17.40
24639;BMP180;1641;51.306;12.384;2023-03-23T11:56:23;99285.00;;;17.80
24639;BMP180;1641;51.306;12.384;2023-03-23T11:58:49;99281.00;;;18.10
24639;BMP180;1641;51.306;12.384;2023-03-23T12:01:19;99275.00;;;18.10
24639;BMP180;1641;51.306;12.384;2023-03-23T12:04:01;99275.00;;;18.30
24639;BMP180;1641;51.306;12.384;2023-03-23T12:06:38;99283.00;;;18.10
24639;BMP180;1641;51.306;12.384;2023-03-23T12:09:09;99291.00;;;18.50
24639;BMP180;1641;51.306;12.384;2023-03-23T12:11:52;99290.00;;;18.30
24639;BMP180;1641;51.306;12.384;2023-03-23T12:17:19;99276.00;;;17.90
24639;BMP180;1641;51.306;12.384;2023-03-23T12:19:58;99279.00;;;18.30
24639;BMP180;1641;51.306;12.384;2023-03-23T12:22:40;99281.00;;;19.10
24639;BMP180;1641;51.306;12.384;2023-03-23T12:25:13;99271.00;;;18.10
24639;BMP180;1641;51.306;12.384;2023-03-23T12:27:51;99276.00;;;18.30
24639;BMP180;1641;51.306;12.384;2023-03-23T12:35:33;99277.00;;;18.80
24639;BMP180;1641;51.306;12.384;2023-03-23T12:40:42;99259.00;;;18.70
24639;BMP180;1641;51.306;12.384;2023-03-23T12:43:43;99257.00;;;18.80
24639;BMP180;1641;51.306;12.384;2023-03-23T12:46:03;99256.00;;;18.50
24639;BMP180;1641;51.306;12.384;2023-03-23T12:48:39;99240.00;;;18.70
24639;BMP180;1641;51.306;12.384;2023-03-23T12:51:08;99231.00;;;19.20
24639;BMP180;1641;51.306;12.384;2023-03-23T12:53:36;99238.00;;;19.50
24639;BMP180;1641;51.306;12.384;2023-03-23T12:58:49;99233.00;;;19.80
24639;BMP180;1641;51.306;12.384;2023-03-23T13:01:35;99237.00;;;19.60
24639;BMP180;1641;51.306;12.384;2023-03-23T13:04:05;99239.00;;;19.10
24639;BMP180;1641;51.306;12.384;2023-03-23T13:06:34;99233.00;;;19.50
24639;BMP180;1641;51.306;12.384;2023-03-23T13:13:54;99249.00;;;19.80
24639;BMP180;1641;51.306;12.384;2023-03-23T13:19:14;99231.00;;;19.30
24639;BMP180;1641;51.306;12.384;2023-03-23T13:21:43;99232.00;;;19.30
24639;BMP180;1641;51.306;12.384;2023-03-23T13:24:11;99231.00;;;19.50
24639;BMP180;1641;51.306;12.384;2023-03-23T13:26:38;99227.00;;;19.10
24639;BMP180;1641;51.306;12.384;2023-03-23T13:29:15;99227.00;;;18.90
24639;BMP180;1641;51.306;12.384;2023-03-23T13:31:44;99245.00;;;18.60
24639;BMP180;1641;51.306;12.384;2023-03-23T13:36:41;99246.00;;;19.20
24639;BMP180;1641;51.306;12.384;2023-03-23T13:39:16;99250.00;;;18.40
24639;BMP180;1641;51.306;12.384;2023-03-23T13:41:58;99250.00;;;18.70
24639;BMP180;1641;51.306;12.384;2023-03-23T13:44:25;99254.00;;;18.60
24639;BMP180;1641;51.306;12.384;2023-03-23T13:46:55;99248.00;;;18.10
24639;BMP180;1641;51.306;12.384;2023-03-23T13:49:21;99238.00;;;18.20
24639;BMP180;1641;51.306;12.384;2023-03-23T13:52:13;99251.00;;;18.30
24639;BMP180;1641;51.306;12.384;2023-03-23T13:54:46;99245.00;;;18.20
24639;BMP180;1641;51.306;12.384;2023-03-23T13:57:20;99254.00;;;18.40
24639;BMP180;1641;51.306;12.384;2023-03-23T13:59:47;99245.00;;;17.80
24639;BMP180;1641;51.306;12.384;2023-03-23T14:02:29;99245.00;;;17.80
24639;BMP180;1641;51.306;12.384;2023-03-23T14:04:55;99248.00;;;17.60
24639;BMP180;1641;51.306;12.384;2023-03-23T14:07:20;99244.00;;;17.80
24639;BMP180;1641;51.306;12.384;2023-03-23T14:09:49;99249.00;;;17.80
24639;BMP180;1641;51.306;12.384;2023-03-23T14:12:19;99252.00;;;18.00
24639;BMP180;1641;51.306;12.384;2023-03-23T14:15:01;99261.00;;;18.00
24639;BMP180;1641;51.306;12.384;2023-03-23T14:17:30;99258.00;;;18.30
24639;BMP180;1641;51.306;12.384;2023-03-23T14:20:01;99267.00;;;18.20
24639;BMP180;1641;51.306;12.384;2023-03-23T14:22:35;99269.00;;;18.10
24639;BMP180;1641;51.306;12.384;2023-03-23T14:27:47;99266.00;;;17.90
24639;BMP180;1641;51.306;12.384;2023-03-23T14:30:17;99256.00;;;17.80
24639;BMP180;1641;51.306;12.384;2023-03-23T14:32:43;99261.00;;;18.10
24639;BMP180;1641;51.306;12.384;2023-03-23T14:35:13;99261.00;;;18.10
24639;BMP180;1641;51.306;12.384;2023-03-23T14:37:42;99265.00;;;18.30
24639;BMP180;1641;51.306;12.384;2023-03-23T14:40:10;99256.00;;;17.90
24639;BMP180;1641;51.306;12.384;2023-03-23T14:42:37;99267.00;;;17.80
24639;BMP180;1641;51.306;12.384;2023-03-23T14:45:05;99260.00;;;18.20
24639;BMP180;1641;51.306;12.384;2023-03-23T14:47:34;99262.00;;;17.90
24639;BMP180;1641;51.306;12.384;2023-03-23T14:50:01;99267.00;;;18.10
24639;BMP180;1641;51.306;12.384;2023-03-23T14:52:28;99271.00;;;18.10
24639;BMP180;1641;51.306;12.384;2023-03-23T14:54:54;99266.00;;;18.00
24639;BMP180;1641;51.306;12.384;2023-03-23T14:57:26;99264.00;;;18.20
24639;BMP180;1641;51.306;12.384;2023-03-23T14:59:52;99268.00;;;18.10
24639;BMP180;1641;51.306;12.384;2023-03-23T15:02:27;99270.00;;;18.10
24639;BMP180;1641;51.306;12.384;2023-03-23T15:04:58;99275.00;;;17.90
24639;BMP180;1641;51.306;12.384;2023-03-23T15:07:31;99270.00;;;17.90
24639;BMP180;1641;51.306;12.384;2023-03-23T15:13:00;99287.00;;;18.10
24639;BMP180;1641;51.306;12.384;2023-03-23T15:17:51;99289.00;;;17.60
24639;BMP180;1641;51.306;12.384;2023-03-23T15:22:54;99294.00;;;17.70
24639;BMP180;1641;51.306;12.384;2023-03-23T15:28:31;99286.00;;;17.30
24639;BMP180;1641;51.306;12.384;2023-03-23T15:30:59;99292.00;;;17.50
24639;BMP180;1641;51.306;12.384;2023-03-23T15:33:38;99287.00;;;17.20
24639;BMP180;1641;51.306;12.384;2023-03-23T15:36:08;99281.00;;;17.10
24639;BMP180;1641;51.306;12.384;2023-03-23T15:38:34;99285.00;;;17.30
24639;BMP180;1641;51.306;12.384;2023-03-23T15:41:03;99283.00;;;17.40
24639;BMP180;1641;51.306;12.384;2023-03-23T15:51:16;99285.00;;;17.70
24639;BMP180;1641;51.306;12.384;2023-03-23T15:53:44;99291.00;;;17.60
24639;BMP180;1641;51.306;12.384;2023-03-23T15:56:13;99296.00;;;17.40
24639;BMP180;1641;51.306;12.384;2023-03-23T15:58:38;99290.00;;;17.10